Time;durP1;ratioP1;P1;durP2;ratioP2;P2;SDS_P1;SDS_P2;PMS_P1;PMS_P2;Temp;Humidity;BMP_temperature;BMP_pressure;BME280_temperature;BME280_humidity;BME280_pressure;Samples;Min_cycle;Max_cycle;Signal;HPM_P1;HPM_P2
2022/04/28 00:02:09;;;;;;;5.95;3.30;;;;;;;12.80;70.24;93427.44;5050972;28;20482;-37
2022/04/28 00:04:35;;;;;;;8.43;3.85;;;;;;;12.66;70.49;93429.03;5050862;28;20048;-37
2022/04/28 00:07:01;;;;;;;8.18;3.47;;;;;;;12.57;71.32;93424.09;5050644;28;20032;-38
2022/04/28 00:09:26;;;;;;;7.00;3.58;;;;;;;12.53;71.54;93427.25;5050538;28;20033;-37
2022/04/28 00:11:52;;;;;;;5.88;3.80;;;;;;;12.32;72.23;93439.91;5050509;28;20021;-37
2022/04/28 00:14:18;;;;;;;8.55;3.60;;;;;;;12.33;72.57;93442.09;5050313;28;20038;-37
2022/04/28 00:16:43;;;;;;;7.80;3.88;;;;;;;12.33;72.30;93444.88;5050460;28;20021;-38
2022/04/28 00:19:09;;;;;;;8.23;3.17;;;;;;;12.48;71.20;93444.81;5050724;28;20135;-37
2022/04/28 00:21:34;;;;;;;5.47;3.45;;;;;;;12.30;71.27;93418.31;5050412;28;20016;-37
2022/04/28 00:24:00;;;;;;;5.43;3.28;;;;;;;12.24;72.81;93444.72;5050142;28;20048;-37
2022/04/28 00:26:26;;;;;;;4.78;2.95;;;;;;;12.27;72.33;93446.38;5050272;28;20021;-37
2022/04/28 00:28:51;;;;;;;5.78;3.72;;;;;;;12.13;72.77;93435.53;5050555;28;20052;-37
2022/04/28 00:31:17;;;;;;;6.60;3.35;;;;;;;12.11;73.32;93442.94;5050539;28;20029;-37
2022/04/28 00:33:42;;;;;;;5.88;3.10;;;;;;;12.25;73.09;93446.94;5050191;28;20029;-37
2022/04/28 00:36:09;;;;;;;8.20;4.07;;;;;;;12.26;73.12;93444.91;5050448;28;20071;-37
2022/04/28 00:38:34;;;;;;;6.32;3.47;;;;;;;12.06;74.25;93436.28;5050128;28;20032;-38
2022/04/28 00:41:00;;;;;;;7.75;3.33;;;;;;;12.15;74.20;93444.03;5050430;28;20017;-38
2022/04/28 00:43:29;;;;;;;6.72;3.22;;;;;;;12.11;74.47;93448.47;5049645;28;20415;-37
2022/04/28 00:45:55;;;;;;;5.60;3.45;;;;;;;12.22;73.46;93450.06;5049888;28;20048;-38
2022/04/28 00:51:06;;;;;;;5.45;3.47;;;;;;;12.05;72.97;93447.94;5050269;28;20052;-37
2022/04/28 00:53:35;;;;;;;7.60;4.30;;;;;;;11.90;73.59;93447.97;5050019;28;20028;-37
2022/04/28 00:56:01;;;;;;;5.95;3.65;;;;;;;11.86;73.88;93448.38;5049191;28;20029;-37
2022/04/28 00:58:27;;;;;;;7.25;4.40;;;;;;;11.74;74.55;93450.03;5049966;28;20056;-37
2022/04/28 01:00:53;;;;;;;8.32;3.60;;;;;;;11.70;75.01;93452.44;5050047;28;20055;-37
2022/04/28 01:03:20;;;;;;;7.22;3.40;;;;;;;11.63;74.93;93457.97;5050167;28;20029;-37
2022/04/28 01:05:46;;;;;;;4.78;3.67;;;;;;;11.65;75.07;93452.63;5048545;28;20690;-37
2022/04/28 01:08:11;;;;;;;10.73;3.78;;;;;;;11.64;74.82;93451.88;5049914;28;20116;-37
2022/04/28 01:10:37;;;;;;;5.65;3.35;;;;;;;11.74;74.55;93449.28;5048593;28;20025;-37
2022/04/28 01:13:03;;;;;;;8.10;3.90;;;;;;;11.65;74.71;93450.56;5049901;28;20040;-37
2022/04/28 01:15:29;;;;;;;6.30;3.20;;;;;;;11.53;75.41;93452.25;5049695;28;20029;-37
2022/04/28 01:17:54;;;;;;;5.32;3.28;;;;;;;11.42;75.85;93458.16;5049730;28;20037;-37
2022/04/28 01:20:20;;;;;;;9.48;4.35;;;;;;;11.36;76.12;93446.56;5049800;28;20033;-37
2022/04/28 01:22:45;;;;;;;5.40;3.45;;;;;;;11.58;75.72;93454.09;5049718;28;20021;-37
2022/04/28 01:25:11;;;;;;;10.05;5.45;;;;;;;11.48;76.58;93452.47;5049783;28;20025;-37
2022/04/28 01:27:38;;;;;;;7.70;5.68;;;;;;;11.49;77.26;93448.41;5049693;28;20502;-38
2022/04/28 01:30:13;;;;;;;14.10;7.22;;;;;;;11.50;78.43;93449.88;5049954;28;20459;-37
2022/04/28 01:32:39;;;;;;;11.07;8.40;;;;;;;11.41;79.10;93449.13;5049654;28;20513;-37
2022/04/28 01:35:05;;;;;;;10.80;8.35;;;;;;;11.43;79.52;93438.25;5049500;28;20023;-37
2022/04/28 01:37:30;;;;;;;9.80;7.95;;;;;;;11.61;78.95;93447.44;5049923;28;20083;-37
2022/04/28 01:39:56;;;;;;;10.05;7.13;;;;;;;11.66;78.68;93449.28;5049559;28;20490;-37
2022/04/28 01:42:23;;;;;;;11.73;7.72;;;;;;;11.49;78.54;93445.63;5049312;28;20024;-37
2022/04/28 01:44:49;;;;;;;10.32;7.82;;;;;;;11.40;78.32;93452.47;5048138;28;20049;-37
2022/04/28 01:47:15;;;;;;;6.28;4.70;;;;;;;11.22;77.09;93446.00;5049589;28;20021;-37
2022/04/28 01:49:41;;;;;;;7.78;3.95;;;;;;;11.17;76.41;93446.22;5049634;28;20051;-37
2022/04/28 01:54:59;;;;;;;9.05;3.88;;;;;;;10.94;77.03;93454.47;5049469;28;20032;-38
2022/04/28 01:57:29;;;;;;;9.50;4.70;;;;;;;10.80;77.40;93450.41;5049970;28;20505;-37
2022/04/28 01:59:56;;;;;;;7.50;3.58;;;;;;;10.79;77.45;93451.69;5053265;28;20462;-37
2022/04/28 02:02:22;;;;;;;7.63;5.22;;;;;;;10.68;77.86;93448.56;5053222;28;20036;-37
2022/04/28 02:04:47;;;;;;;8.18;5.35;;;;;;;10.73;77.96;93448.38;5051699;28;20024;-37
2022/04/28 02:07:13;;;;;;;5.22;4.60;;;;;;;10.54;78.68;93453.50;5053174;28;20059;-37
2022/04/28 02:09:40;;;;;;;3.90;3.50;;;;;;;10.47;78.32;93454.19;5052697;28;20032;-37
2022/04/28 02:12:06;;;;;;;7.38;4.20;;;;;;;10.42;79.44;93452.34;5053019;28;20028;-37
2022/04/28 02:14:32;;;;;;;10.80;6.15;;;;;;;10.42;79.98;93452.34;5052637;28;20512;-38
2022/04/28 02:16:57;;;;;;;7.32;5.40;;;;;;;10.30;80.72;93449.19;5052894;28;20104;-37
2022/04/28 02:19:24;;;;;;;9.98;5.97;;;;;;;10.42;81.04;93452.34;5052732;28;20048;-37
2022/04/28 02:21:49;;;;;;;9.70;6.07;;;;;;;10.50;81.02;93453.84;5052537;28;20052;-37
2022/04/28 02:24:15;;;;;;;16.80;11.25;;;;;;;10.62;83.89;93457.00;5051116;28;20098;-37
2022/04/28 02:26:40;;;;;;;14.00;12.45;;;;;;;10.79;85.54;93450.94;5052794;28;20021;-37
2022/04/28 02:29:06;;;;;;;16.13;13.88;;;;;;;10.96;87.37;93451.91;5052671;28;20550;-37
2022/04/28 02:31:31;;;;;;;17.30;13.80;;;;;;;11.17;88.02;93451.75;5052774;28;20086;-37
2022/04/28 02:33:57;;;;;;;14.23;12.70;;;;;;;11.28;87.72;93454.84;5052531;28;20497;-37
2022/04/28 02:36:24;;;;;;;12.18;10.80;;;;;;;11.37;87.15;93450.78;5052619;28;20021;-38
2022/04/28 02:38:50;;;;;;;12.68;11.35;;;;;;;11.53;86.78;93446.72;5052203;28;20033;-37
2022/04/28 02:41:20;;;;;;;11.68;10.48;;;;;;;11.69;85.01;93439.94;5052167;28;20158;-37
2022/04/28 02:43:46;;;;;;;11.13;9.32;;;;;;;11.75;84.55;93451.53;5052103;28;20075;-37
2022/04/28 02:46:11;;;;;;;10.75;9.57;;;;;;;11.89;83.63;93454.81;5052133;28;20082;-38
2022/04/28 02:48:37;;;;;;;12.23;9.43;;;;;;;11.90;83.12;93465.31;5052343;28;20430;-37
2022/04/28 02:51:03;;;;;;;11.13;8.02;;;;;;;11.87;80.83;93458.13;5052372;28;20025;-38
2022/04/28 02:53:28;;;;;;;12.18;10.52;;;;;;;11.90;82.05;93462.56;5052261;28;20029;-38
2022/04/28 02:55:54;;;;;;;12.52;11.25;;;;;;;11.82;83.56;93472.91;5052222;28;20397;-37
2022/04/28 02:58:19;;;;;;;13.95;10.57;;;;;;;11.86;83.98;93462.19;5052173;28;20094;-37
2022/04/28 03:00:45;;;;;;;11.10;9.57;;;;;;;11.85;83.67;93462.72;5051077;28;20457;-37
2022/04/28 03:03:10;;;;;;;11.13;10.02;;;;;;;11.92;83.33;93467.53;5051613;28;20021;-37
2022/04/28 03:10:46;;;;;;;13.23;9.40;;;;;;;11.88;83.29;93478.97;5052044;28;20544;-37
2022/04/28 03:11:06;;;;;;;10.98;9.18;;;;;;;11.95;82.39;93469.19;5051939;28;20059;-38
2022/04/28 03:13:32;;;;;;;12.45;9.32;;;;;;;11.96;82.55;93471.38;5051845;28;20028;-38
2022/04/28 03:15:59;;;;;;;10.10;8.05;;;;;;;12.08;82.14;93477.97;5051812;28;20032;-37
2022/04/28 03:18:24;;;;;;;9.70;8.70;;;;;;;12.18;82.10;93475.38;5051885;28;20574;-38
2022/04/28 03:20:50;;;;;;;10.23;9.10;;;;;;;12.18;81.31;93481.66;5051417;28;20021;-37
2022/04/28 03:23:15;;;;;;;9.98;9.00;;;;;;;12.20;81.39;93489.41;5051687;28;20040;-38
2022/04/28 03:25:41;;;;;;;17.13;9.65;;;;;;;12.07;81.27;93465.47;5051371;28;20021;-37
2022/04/28 03:28:08;;;;;;;11.07;9.63;;;;;;;12.11;81.60;93492.75;5051281;28;20036;-37
2022/04/28 03:30:33;;;;;;;10.50;8.82;;;;;;;12.05;82.45;93492.22;5051331;28;20556;-38
2022/04/28 03:33:00;;;;;;;12.18;9.23;;;;;;;12.02;82.53;93491.28;5051176;28;20033;-37
2022/04/28 03:35:25;;;;;;;10.55;8.85;;;;;;;11.96;82.79;93501.81;5051364;28;20116;-37
2022/04/28 03:37:50;;;;;;;12.15;8.65;;;;;;;11.97;82.89;93502.56;5050250;28;20021;-37
2022/04/28 03:40:17;;;;;;;9.52;8.35;;;;;;;11.95;82.93;93508.63;5051086;28;20021;-37
2022/04/28 03:42:43;;;;;;;7.30;6.60;;;;;;;12.05;82.87;93514.34;5050500;28;20083;-37
2022/04/28 03:45:09;;;;;;;6.65;6.07;;;;;;;12.12;82.67;93517.13;5051287;28;20049;-37
2022/04/28 03:47:36;;;;;;;6.53;5.82;;;;;;;12.17;82.10;93521.69;5051268;28;20414;-38
2022/04/28 03:50:03;;;;;;;8.85;5.88;;;;;;;12.15;81.94;93527.06;5050859;28;20446;-37
2022/04/28 03:52:28;;;;;;;5.53;5.03;;;;;;;12.17;82.05;93524.47;5051089;28;20104;-37
2022/04/28 03:54:54;;;;;;;7.75;5.55;;;;;;;12.23;81.82;93526.31;5050853;28;20025;-37
2022/04/28 03:57:20;;;;;;;7.30;5.03;;;;;;;12.31;81.48;93532.56;5050982;28;20470;-38
2022/04/28 03:59:45;;;;;;;4.68;4.18;;;;;;;12.26;81.30;93536.28;5051079;28;20482;-37
2022/04/28 04:02:11;;;;;;;4.05;3.75;;;;;;;12.11;81.12;93512.84;5050974;28;20500;-37
2022/04/28 04:04:37;;;;;;;3.58;3.28;;;;;;;12.28;80.95;93530.91;5050726;28;20029;-37
2022/04/28 04:07:02;;;;;;;3.22;3.03;;;;;;;12.30;80.62;93542.16;5050667;28;20056;-37
2022/04/28 04:09:28;;;;;;;3.17;2.88;;;;;;;12.35;80.29;93530.88;5050855;28;20029;-37
2022/04/28 04:11:54;;;;;;;3.33;3.03;;;;;;;12.31;80.05;93538.81;5050918;28;20104;-38
2022/04/28 04:14:19;;;;;;;3.58;2.22;;;;;;;12.28;80.18;93533.69;5049336;28;20059;-37
2022/04/28 04:16:45;;;;;;;2.75;2.38;;;;;;;12.14;80.14;93530.38;5050489;28;20028;-37
2022/04/28 04:19:10;;;;;;;2.33;2.10;;;;;;;12.28;79.69;93530.91;5050707;28;20078;-37
2022/04/28 04:21:35;;;;;;;3.17;1.30;;;;;;;12.30;79.19;93537.34;5049951;28;20024;-37
2022/04/28 04:24:01;;;;;;;3.20;2.17;;;;;;;12.33;79.23;93536.25;5050668;28;20028;-37
2022/04/28 04:26:26;;;;;;;2.28;2.08;;;;;;;12.42;78.75;93534.91;5050390;28;20029;-37
2022/04/28 04:28:52;;;;;;;1.50;1.40;;;;;;;12.47;78.38;93540.28;5050626;28;20025;-37
2022/04/28 04:34:01;;;;;;;2.60;2.28;;;;;;;12.55;77.60;93543.00;5050437;28;20091;-37
2022/04/28 04:36:27;;;;;;;1.73;1.33;;;;;;;12.65;77.17;93541.09;5050503;28;20482;-37
2022/04/28 04:38:52;;;;;;;1.02;0.98;;;;;;;12.75;76.71;93542.75;5050205;28;20056;-37
2022/04/28 04:41:18;;;;;;;1.35;1.25;;;;;;;12.78;75.72;93543.63;5049795;28;20517;-37
2022/04/28 04:43:43;;;;;;;1.48;1.17;;;;;;;12.79;75.64;93536.81;5050086;28;20049;-37
2022/04/28 04:46:09;;;;;;;0.90;0.90;;;;;;;12.78;75.90;93544.38;5050036;28;20036;-37
2022/04/28 04:48:34;;;;;;;1.75;1.55;;;;;;;12.83;76.01;93537.91;5049543;28;20060;-37
2022/04/28 04:51:00;;;;;;;4.30;3.28;;;;;;;12.78;75.71;93541.59;5050298;28;20032;-37
2022/04/28 04:53:25;;;;;;;6.35;3.42;;;;;;;12.89;75.66;93543.22;5050385;28;20113;-37
2022/04/28 04:55:51;;;;;;;1.55;1.45;;;;;;;12.95;75.04;93546.50;5049999;28;20025;-37
2022/04/28 04:58:16;;;;;;;1.10;1.00;;;;;;;13.06;74.98;93548.88;5050241;28;20053;-38
2022/04/28 05:00:42;;;;;;;2.00;1.13;;;;;;;13.09;74.41;93547.03;5050017;28;20044;-37
2022/04/28 05:03:07;;;;;;;1.98;1.10;;;;;;;13.07;74.42;93544.09;5050215;28;20116;-37
2022/04/28 05:05:32;;;;;;;1.30;1.20;;;;;;;13.09;74.66;93545.00;5049999;28;20025;-37
2022/04/28 05:07:58;;;;;;;2.20;1.95;;;;;;;13.23;74.38;93551.75;5050239;28;20043;-37
2022/04/28 05:10:23;;;;;;;2.55;2.35;;;;;;;13.32;74.78;93545.59;5049822;28;20032;-37
2022/04/28 05:12:49;;;;;;;3.15;2.83;;;;;;;13.32;74.83;93550.41;5049871;28;20032;-37
2022/04/28 05:15:14;;;;;;;2.30;2.10;;;;;;;13.40;74.14;93553.88;5050110;28;20025;-37
2022/04/28 05:17:40;;;;;;;3.83;3.00;;;;;;;13.40;74.11;93560.16;5049813;28;20529;-37
2022/04/28 05:20:06;;;;;;;2.58;2.13;;;;;;;13.23;75.21;93562.84;5050091;28;20025;-37
2022/04/28 05:22:32;;;;;;;1.70;1.55;;;;;;;13.00;76.42;93567.75;5048432;28;20028;-37
2022/04/28 05:24:58;;;;;;;1.20;1.10;;;;;;;12.95;77.04;93563.13;5049739;28;20021;-37
2022/04/28 05:27:23;;;;;;;1.58;1.48;;;;;;;12.89;77.64;93568.16;5050047;28;20032;-37
2022/04/28 05:29:49;;;;;;;1.60;1.40;;;;;;;12.90;77.37;93572.41;5049654;28;20060;-37
2022/04/28 05:32:14;;;;;;;1.92;1.23;;;;;;;12.85;77.84;93570.59;5050001;28;20499;-37
2022/04/28 05:34:40;;;;;;;1.60;1.50;;;;;;;12.88;78.74;93577.78;5052358;28;20029;-37
2022/04/28 05:37:06;;;;;;;1.60;1.40;;;;;;;12.98;78.38;93575.88;5053737;28;20074;-37
2022/04/28 05:39:31;;;;;;;1.52;1.42;;;;;;;13.16;77.36;93579.53;5053663;28;20086;-37
2022/04/28 05:41:57;;;;;;;2.40;1.60;;;;;;;13.43;76.19;93588.78;5053050;28;20017;-37
2022/04/28 05:47:07;;;;;;;2.10;1.92;;;;;;;13.32;75.43;93587.19;5053615;28;20086;-37
2022/04/28 05:49:33;;;;;;;5.03;1.35;;;;;;;13.18;75.34;93588.75;5053255;28;20056;-37
2022/04/28 05:51:59;;;;;;;9.05;5.97;;;;;;;13.41;74.79;93588.59;5053159;28;20039;-37
2022/04/28 05:54:25;;;;;;;5.75;5.10;;;;;;;13.71;73.68;93593.97;5053333;28;20033;-37
2022/04/28 05:56:51;;;;;;;7.15;3.03;;;;;;;13.81;72.22;93591.31;5053069;28;20029;-37
2022/04/28 05:59:17;;;;;;;5.45;4.20;;;;;;;13.84;71.88;93587.41;5053019;28;20498;-37
2022/04/28 06:01:43;;;;;;;3.83;2.75;;;;;;;13.88;71.15;93596.78;5053010;28;20032;-36
2022/04/28 06:04:08;;;;;;;1.50;1.38;;;;;;;13.76;69.97;93595.78;5052972;28;20029;-37
2022/04/28 06:06:34;;;;;;;1.20;1.10;;;;;;;13.60;70.41;93594.41;5052003;28;20021;-37
2022/04/28 06:09:00;;;;;;;1.13;1.10;;;;;;;13.47;71.20;93589.88;5053116;28;20032;-37
2022/04/28 06:11:26;;;;;;;1.50;1.20;;;;;;;13.59;71.83;93590.91;5052826;28;20025;-37
2022/04/28 06:13:51;;;;;;;1.42;1.33;;;;;;;14.21;69.38;93603.00;5053000;28;20025;-37
2022/04/28 06:16:16;;;;;;;3.42;1.23;;;;;;;15.02;67.56;93602.00;5052936;28;20464;-37
2022/04/28 06:18:42;;;;;;;1.25;0.93;;;;;;;15.64;64.65;93595.09;5052972;28;20456;-37
2022/04/28 06:21:07;;;;;;;1.27;0.93;;;;;;;15.87;61.90;93601.06;5052969;28;20468;-37
2022/04/28 06:23:33;;;;;;;0.88;0.88;;;;;;;15.96;61.16;93603.13;5052573;28;20029;-37
2022/04/28 06:26:00;;;;;;;1.10;1.00;;;;;;;15.94;61.15;93600.19;5052824;28;20055;-37
2022/04/28 06:28:26;;;;;;;0.90;0.85;;;;;;;15.78;61.49;93608.06;5052492;28;20043;-37
2022/04/28 06:30:51;;;;;;;2.17;0.90;;;;;;;15.62;61.90;93606.06;5052336;28;20112;-37
2022/04/28 06:33:18;;;;;;;1.15;1.05;;;;;;;15.39;61.52;93598.03;5052395;28;20068;-37
2022/04/28 06:35:44;;;;;;;0.95;0.77;;;;;;;15.01;62.17;93608.88;5052608;28;20029;-37
2022/04/28 06:38:09;;;;;;;0.82;0.82;;;;;;;14.90;63.64;93612.88;5051345;28;20585;-37
2022/04/28 06:40:35;;;;;;;1.10;1.00;;;;;;;15.00;64.15;93610.19;5052628;28;20090;-37
2022/04/28 06:43:01;;;;;;;1.58;1.25;;;;;;;14.89;64.26;93611.44;5051538;28;20496;-36
2022/04/28 06:45:26;;;;;;;1.50;1.40;;;;;;;14.94;63.29;93606.94;5052162;28;20571;-37
2022/04/28 06:47:51;;;;;;;1.10;1.00;;;;;;;14.93;63.35;93599.88;5052015;28;20024;-37
2022/04/28 06:50:17;;;;;;;1.70;0.98;;;;;;;15.05;63.62;93607.16;5050999;28;20029;-37
2022/04/28 06:52:42;;;;;;;1.75;1.60;;;;;;;15.22;62.58;93602.88;5052022;28;20025;-37
2022/04/28 06:55:10;;;;;;;1.95;1.67;;;;;;;15.23;61.92;93610.63;5051951;28;20037;-37
2022/04/28 06:57:36;;;;;;;1.20;1.10;;;;;;;15.46;61.70;93610.38;5052239;28;20020;-37
2022/04/28 07:00:04;;;;;;;1.40;1.08;;;;;;;15.60;61.82;93617.03;5052203;28;20419;-37
2022/04/28 07:02:30;;;;;;;0.70;0.70;;;;;;;15.58;60.89;93625.97;5052105;28;20017;-37
2022/04/28 07:04:56;;;;;;;1.35;0.70;;;;;;;15.32;61.09;93617.56;5052116;28;20025;-37
2022/04/28 07:07:21;;;;;;;1.63;0.60;;;;;;;15.30;62.04;93634.84;5051315;28;20407;-37
2022/04/28 07:09:48;;;;;;;1.00;0.85;;;;;;;15.01;62.56;93634.63;5051105;28;20083;-37
2022/04/28 07:12:13;;;;;;;4.40;0.95;;;;;;;14.64;62.16;93640.63;5051918;28;20082;-37
2022/04/28 07:14:39;;;;;;;30.30;13.38;;;;;;;14.29;63.37;93639.81;5051881;28;20448;-37
2022/04/28 07:17:04;;;;;;;12.43;7.00;;;;;;;13.98;64.20;93635.78;5051524;28;20021;-37
2022/04/28 07:19:30;;;;;;;4.28;3.00;;;;;;;13.82;65.54;93631.66;5051561;28;20025;-37
2022/04/28 07:21:55;;;;;;;2.08;1.58;;;;;;;13.80;65.81;93646.06;5051526;28;20029;-36
2022/04/28 07:24:21;;;;;;;1.35;0.95;;;;;;;13.87;65.83;93650.09;5051662;28;20033;-37
2022/04/28 07:26:47;;;;;;;1.08;0.90;;;;;;;13.86;66.44;93645.88;5051554;28;20079;-37
2022/04/28 07:29:12;;;;;;;1.20;1.10;;;;;;;13.88;65.54;93648.81;5051598;28;20536;-37
2022/04/28 07:31:38;;;;;;;0.90;0.70;;;;;;;13.92;65.82;93641.56;5051382;28;20248;-37
2022/04/28 07:34:03;;;;;;;1.02;1.00;;;;;;;14.10;64.94;93645.84;5051132;28;20039;-37
2022/04/28 07:36:29;;;;;;;1.70;1.20;;;;;;;14.19;65.15;93642.44;5050859;28;20031;-36
2022/04/28 07:38:55;;;;;;;2.83;1.17;;;;;;;14.35;64.65;93648.66;5050270;28;20029;-36
2022/04/28 07:41:20;;;;;;;3.35;2.42;;;;;;;14.50;64.70;93653.31;5051069;28;20029;-37
2022/04/28 07:43:46;;;;;;;3.53;2.28;;;;;;;15.21;63.60;93646.66;5050984;28;20154;-37
2022/04/28 07:46:11;;;;;;;3.15;1.70;;;;;;;16.10;59.78;93653.63;5050991;28;20025;-37
2022/04/28 07:48:37;;;;;;;4.13;1.55;;;;;;;16.39;57.69;93649.66;5051344;28;20025;-37
2022/04/28 07:51:03;;;;;;;3.83;1.40;;;;;;;16.58;56.88;93649.72;5051155;28;20017;-37
2022/04/28 07:53:29;;;;;;;1.42;1.10;;;;;;;16.76;56.97;93641.97;5051203;28;20033;-37
2022/04/28 07:58:38;;;;;;;2.38;1.58;;;;;;;17.47;55.36;93653.44;5050861;28;20116;-37
2022/04/28 08:01:04;;;;;;;0.98;0.70;;;;;;;17.80;53.93;93653.72;5050743;28;20108;-37
2022/04/28 08:03:30;;;;;;;0.90;0.50;;;;;;;18.07;52.96;93635.41;5050735;28;20033;-37
2022/04/28 08:05:56;;;;;;;1.20;1.10;;;;;;;18.16;52.77;93651.41;5050024;28;20028;-37
2022/04/28 08:08:22;;;;;;;0.70;0.63;;;;;;;18.30;53.86;93650.91;5050277;28;20028;-37
2022/04/28 08:10:48;;;;;;;1.52;0.70;;;;;;;18.59;51.74;93654.31;5050631;28;20028;-37
2022/04/28 08:13:13;;;;;;;2.75;0.70;;;;;;;19.04;50.52;93646.81;5050870;28;20033;-37
2022/04/28 08:15:39;;;;;;;2.95;0.70;;;;;;;19.63;48.67;93658.47;5050632;28;20029;-37
2022/04/28 08:18:05;;;;;;;0.75;0.70;;;;;;;19.85;48.65;93645.13;5050761;28;20020;-37
2022/04/28 08:20:31;;;;;;;1.55;0.70;;;;;;;20.38;46.74;93630.22;5050769;28;20590;-37
2022/04/28 08:22:56;;;;;;;4.13;0.70;;;;;;;20.89;44.66;93650.81;5050313;28;20097;-37
2022/04/28 08:25:22;;;;;;;0.30;0.30;;;;;;;20.71;45.06;93654.59;5050328;28;20025;-38
2022/04/28 08:27:47;;;;;;;5.05;0.70;;;;;;;20.17;45.57;93663.97;5050663;28;20025;-37
2022/04/28 08:30:13;;;;;;;1.35;1.00;;;;;;;19.64;45.77;93651.50;5050264;28;20445;-37
2022/04/28 08:32:38;;;;;;;3.22;0.60;;;;;;;19.12;47.37;93670.50;5050292;28;20082;-37
2022/04/28 08:35:04;;;;;;;1.77;0.50;;;;;;;18.61;49.16;93671.22;5050409;28;20060;-37
2022/04/28 08:37:30;;;;;;;2.40;1.13;;;;;;;18.36;49.69;93657.66;5050516;28;20104;-37
2022/04/28 08:39:55;;;;;;;0.70;0.60;;;;;;;18.16;50.09;93665.38;5050230;28;20528;-37
2022/04/28 08:42:21;;;;;;;1.70;1.10;;;;;;;17.81;51.31;93669.88;5048985;28;20028;-37
2022/04/28 08:44:47;;;;;;;1.50;0.70;;;;;;;17.83;51.41;93664.44;5049517;28;20045;-37
2022/04/28 08:47:13;;;;;;;0.88;0.88;;;;;;;17.69;52.15;93659.91;5050053;28;20082;-38
2022/04/28 08:49:43;;;;;;;2.40;0.70;;;;;;;18.11;53.52;93668.47;5050149;28;20514;-38
2022/04/28 08:52:11;;;;;;;6.43;1.27;;;;;;;18.89;50.33;93673.13;5049969;28;20039;-38
2022/04/28 08:54:38;;;;;;;1.42;0.88;;;;;;;19.14;49.81;93669.88;5050329;28;20479;-38
2022/04/28 08:57:03;;;;;;;1.23;0.70;;;;;;;18.96;49.53;93672.22;5050056;28;20029;-38
2022/04/28 08:59:29;;;;;;;4.65;0.80;;;;;;;18.39;50.14;93658.50;5050011;28;20039;-38
2022/04/28 09:01:54;;;;;;;2.50;0.63;;;;;;;18.29;49.89;93669.75;5050039;28;20051;-38
2022/04/28 09:04:22;;;;;;;6.95;1.42;;;;;;;18.15;50.81;93663.16;5050184;28;20029;-37
2022/04/28 09:06:52;;;;;;;1.23;0.77;;;;;;;18.24;49.40;93676.38;5051321;28;20524;-38
2022/04/28 09:09:19;;;;;;;4.55;1.00;;;;;;;17.96;51.64;93669.53;5051519;28;20025;-37
2022/04/28 09:11:45;;;;;;;1.75;0.80;;;;;;;18.18;50.76;93665.50;5053819;28;20064;-37
2022/04/28 09:14:15;;;;;;;0.98;0.82;;;;;;;18.30;50.36;93670.47;5053774;28;20028;-37
2022/04/28 09:16:44;;;;;;;6.60;4.53;;;;;;;18.03;50.49;93665.84;5054063;28;20154;-37
2022/04/28 09:19:19;;;;;;;3.45;1.23;;;;;;;18.02;50.63;93666.44;5053642;28;20041;-37
2022/04/28 09:21:46;;;;;;;0.95;0.80;;;;;;;18.08;50.47;93664.78;5054068;28;20021;-37
2022/04/28 09:24:13;;;;;;;3.00;1.20;;;;;;;18.02;50.01;93677.59;5053666;28;20031;-37
2022/04/28 09:26:40;;;;;;;4.60;1.42;;;;;;;18.07;50.71;93668.19;5052788;28;20068;-38
2022/04/28 09:29:07;;;;;;;3.88;2.67;;;;;;;18.06;50.30;93675.13;5052444;28;20039;-38
2022/04/28 09:31:33;;;;;;;12.25;7.97;;;;;;;17.88;49.83;93680.16;5052354;28;20033;-37
2022/04/28 09:34:09;;;;;;;2.55;1.83;;;;;;;18.08;52.09;93672.47;5053081;28;20028;-38
2022/04/28 09:36:39;;;;;;;1.75;1.65;;;;;;;17.97;51.91;93679.41;5053317;28;20029;-37
2022/04/28 09:39:06;;;;;;;2.05;1.20;;;;;;;17.91;49.83;93672.66;5053503;28;20044;-37
2022/04/28 09:44:21;;;;;;;2.67;1.92;;;;;;;17.77;51.20;93677.22;5053480;28;20055;-37
2022/04/28 09:46:48;;;;;;;4.72;2.10;;;;;;;17.65;49.68;93668.72;5053327;28;20112;-38
2022/04/28 09:49:17;;;;;;;2.30;1.50;;;;;;;17.50;51.05;93679.44;5053541;28;20124;-37
2022/04/28 09:51:43;;;;;;;2.10;1.80;;;;;;;17.36;50.80;93679.16;5053424;28;20086;-37
2022/04/28 09:54:11;;;;;;;2.55;1.85;;;;;;;17.26;52.35;93681.22;5053351;28;20048;-37
2022/04/28 09:56:38;;;;;;;4.03;1.50;;;;;;;17.01;51.67;93681.50;5053543;28;20151;-38
2022/04/28 09:59:05;;;;;;;2.20;1.92;;;;;;;17.29;51.91;93674.44;5051839;28;20036;-37
2022/04/28 10:01:34;;;;;;;2.38;1.80;;;;;;;16.90;53.10;93665.31;5052859;28;20151;-37
2022/04/28 10:03:59;;;;;;;;;;;;;;;16.99;51.67;93672.97;5053838;28;20057;-37
2022/04/28 10:06:25;;;;;;;3.60;1.67;;;;;;;16.93;52.10;93671.78;5052926;28;19983;-38
2022/04/28 10:08:55;;;;;;;1.80;1.25;;;;;;;16.83;52.16;93679.41;5052919;28;20423;-37
2022/04/28 10:11:22;;;;;;;4.18;2.13;;;;;;;16.85;51.54;93687.94;5053103;28;20032;-37
2022/04/28 10:13:50;;;;;;;5.97;3.58;;;;;;;16.93;52.63;93680.16;5053122;28;20025;-37
2022/04/28 10:16:17;;;;;;;3.90;2.28;;;;;;;17.14;51.40;93689.44;5052731;28;20053;-37
2022/04/28 10:18:48;;;;;;;4.53;2.92;;;;;;;16.98;51.80;93685.44;5050969;28;20029;-37
2022/04/28 10:21:17;;;;;;;2.42;1.50;;;;;;;16.91;51.33;93683.53;5052615;28;20016;-37
2022/04/28 10:35:04;;;;;;;3.05;1.40;;;;;;;16.63;53.71;93675.84;5052693;28;20155;-38
2022/04/28 10:37:31;;;;;;;2.80;1.90;;;;;;;16.54;53.14;93679.34;5051593;28;20035;-38
2022/04/28 10:39:56;;;;;;;1.45;1.35;;;;;;;16.36;52.26;93667.53;5052356;28;20025;-38
2022/04/28 10:42:28;;;;;;;1.85;1.10;;;;;;;16.42;52.25;93672.81;5051906;28;20025;-37
2022/04/28 10:44:55;;;;;;;2.25;1.63;;;;;;;16.42;52.60;93678.38;5051014;28;20506;-37
2022/04/28 10:47:30;;;;;;;2.13;1.52;;;;;;;16.56;52.47;93665.56;5052169;28;20103;-37
2022/04/28 10:49:56;;;;;;;2.30;1.88;;;;;;;16.27;53.21;93648.72;5052218;28;20057;-38
2022/04/28 10:52:23;;;;;;;2.75;1.70;;;;;;;16.48;53.20;93670.50;5052314;28;20051;-38
2022/04/28 10:54:53;;;;;;;3.78;1.67;;;;;;;16.57;52.23;93669.78;5051937;28;20033;-38
2022/04/28 10:57:29;;;;;;;1.50;1.23;;;;;;;16.71;52.75;93667.34;5052035;28;20039;-37
2022/04/28 10:59:55;;;;;;;5.22;1.70;;;;;;;16.92;52.48;93662.69;5051915;28;20025;-37
2022/04/28 11:02:21;;;;;;;1.98;1.77;;;;;;;17.39;51.22;93672.38;5052189;28;20024;-38
2022/04/28 11:04:56;;;;;;;1.50;1.27;;;;;;;17.55;50.01;93665.22;5051913;28;20031;-37
2022/04/28 11:07:25;;;;;;;2.60;1.30;;;;;;;17.92;50.33;93663.69;5051791;28;20036;-37
2022/04/28 11:09:55;;;;;;;4.82;1.63;;;;;;;18.31;49.17;93664.28;5052114;28;20017;-38
2022/04/28 11:12:22;;;;;;;4.28;1.65;;;;;;;18.35;49.42;93670.16;5051427;28;20025;-38
2022/04/28 11:15:08;;;;;;;1.75;1.15;;;;;;;18.33;49.15;93666.47;5050636;28;20498;-37
2022/04/28 11:17:37;;;;;;;2.97;1.60;;;;;;;18.44;48.20;93669.41;5051925;28;20418;-37
2022/04/28 11:20:07;;;;;;;6.50;2.45;;;;;;;18.38;49.46;93674.56;5051759;28;20056;-38
2022/04/28 11:22:34;;;;;;;1.75;1.60;;;;;;;18.64;49.40;93676.38;5051326;28;20038;-38
2022/04/28 11:24:59;;;;;;;5.78;2.17;;;;;;;18.82;48.19;93668.47;5051700;28;20025;-38
2022/04/28 11:27:27;;;;;;;2.80;1.85;;;;;;;18.99;48.34;93668.22;5050134;28;20414;-38
2022/04/28 11:29:58;;;;;;;1.58;1.27;;;;;;;18.73;47.08;93666.47;5051371;28;20053;-38
2022/04/28 11:32:24;;;;;;;3.78;2.80;;;;;;;18.55;46.94;93659.63;5051539;28;20036;-37
2022/04/28 11:34:51;;;;;;;4.70;1.70;;;;;;;18.65;48.17;93665.91;5048834;28;20409;-37
2022/04/28 11:37:18;;;;;;;6.78;2.35;;;;;;;18.85;47.46;93678.47;5051241;28;20021;-37
2022/04/28 11:39:48;;;;;;;2.55;2.10;;;;;;;18.85;48.27;93670.06;5051102;28;20108;-37
2022/04/28 11:42:17;;;;;;;6.55;2.70;;;;;;;18.86;48.64;93663.16;5050709;28;20091;-38
2022/04/28 11:44:54;;;;;;;5.85;2.00;;;;;;;18.79;48.31;93658.47;5050950;28;20045;-38
2022/04/28 11:47:20;;;;;;;2.88;1.83;;;;;;;18.98;49.22;93660.41;5051300;28;20067;-38
2022/04/28 11:49:45;;;;;;;3.05;1.30;;;;;;;18.82;47.56;93651.69;5051321;28;20033;-37
2022/04/28 11:52:25;;;;;;;2.90;1.88;;;;;;;19.52;48.69;93656.34;5050782;28;20020;-37
2022/04/28 11:55:03;;;;;;;2.25;1.73;;;;;;;19.60;46.55;93648.44;5050423;28;20032;-38
2022/04/28 11:57:29;;;;;;;3.43;2.63;;;;;;;19.51;47.49;93648.56;5051293;28;20115;-38
2022/04/28 11:59:55;;;;;;;1.85;1.65;;;;;;;19.50;47.03;93647.06;5051008;28;20523;-38